Maersk Lebu — VRJH7 — position and weather

sailwx.info

Track history (hours):
 
Tides and Currents Weather Stations Pressure Air Temp Water Temp Dewpoint Dewpoint Depression Visibility Wind Speed Wind Dir Waves Ship Positions

Maersk Lebu

Last reported at 2018-Jul-21 17:30 UTC. Time now 2018-Jul-21 17:33 UTC.
Position N 33°53' W 008°10'.

Length 300 m; draft 10.7 m.

Type: Cargo ship. MMSI: 477196800.

Date/timePositionNaut miles runAvg speedWind from/ knotsBaromVisibWave heightAir tempDewpointWater temp
2018-Jul-21 17:30N 33°53' W 008°10'1018.9
2018-Jul-21 17:00N 33°46' W 008°18'1218.3
2018-Jul-21 16:22N 33°37' W 008°27'23816.7
2018-Jul-21 02:08N 30°28' W 011°17'2315.2
2018-Jul-21 00:37N 30°09' W 011°32'215.5
2018-Jul-21 00:30N 30°08' W 011°33'815.5
2018-Jul-20 23:58N 30°01' W 011°39'815.7
2018-Jul-20 23:30N 29°55' W 011°44'815.7
2018-Jul-20 23:00N 29°48' W 011°49'815.5
2018-Jul-20 22:30N 29°42' W 011°54'815.7
2018-Jul-20 22:00N 29°36' W 011°59'815.6
2018-Jul-20 21:30N 29°29' W 012°04'815.7
2018-Jul-20 21:01N 29°23' W 012°09'815.9
2018-Jul-20 20:30N 29°16' W 012°14'815.9
2018-Jul-20 20:01N 29°10' W 012°20'815.8
2018-Jul-20 19:30N 29°03' W 012°25'815.7
2018-Jul-20 19:00N 28°57' W 012°30'815.6
2018-Jul-20 18:30N 28°51' W 012°35'815.7
2018-Jul-20 18:00N 28°44' W 012°40'815.9
2018-Jul-20 17:30N 28°38' W 012°45'815.9
2018-Jul-20 17:01N 28°31' W 012°50'816.2
2018-Jul-20 16:30N 28°25' W 012°56'816.4
2018-Jul-20 16:00N 28°18' W 013°01'816.4
2018-Jul-20 15:30N 28°11' W 013°06'816.2
2018-Jul-20 15:00N 28°04' W 013°12'816.1
2018-Jul-20 14:30N 27°58' W 013°17'816.0
2018-Jul-20 14:00N 27°51' W 013°23'816.0
2018-Jul-20 13:30N 27°45' W 013°28'816.0
2018-Jul-20 13:00N 27°39' W 013°34'816.2
2018-Jul-20 12:30N 27°33' W 013°40'816.6
2018-Jul-20 12:00N 27°26' W 013°45'816.8
2018-Jul-20 11:30N 27°20' W 013°51'816.8
2018-Jul-20 11:01N 27°13' W 013°57'816.9
2018-Jul-20 10:30N 27°06' W 014°03'816.9
2018-Jul-20 10:01N 26°60' W 014°09'816.6
2018-Jul-20 09:31N 26°53' W 014°15'816.8
2018-Jul-20 09:00N 26°47' W 014°21'816.7
2018-Jul-20 08:31N 26°40' W 014°26'816.5
2018-Jul-20 08:00N 26°34' W 014°32'816.5
2018-Jul-20 07:30N 26°27' W 014°38'816.7
2018-Jul-20 07:00N 26°21' W 014°43'916.6
2018-Jul-20 06:29N 26°14' W 014°49'816.8
2018-Jul-20 06:00N 26°07' W 014°55'916.9
2018-Jul-20 05:27N 26°00' W 015°01'916.7
2018-Jul-20 04:55N 25°53' W 015°07'716.4
2018-Jul-20 04:30N 25°48' W 015°12'7516.7
2018-Jul-20 00:00N 24°44' W 015°57'4417.2
2018-Jul-19 21:26N 24°07' W 016°22'1216.8
2018-Jul-19 20:43N 23°57' W 016°29'1316.8
2018-Jul-19 19:58N 23°46' W 016°37'  
Track history (hours):
 
Tides and Currents Weather Stations Pressure Air Temp Water Temp Dewpoint Dewpoint Depression Visibility Wind Speed Wind Dir Waves Ship Positions

Maersk Lebu

Last reported at 2018-Jul-21 17:30 UTC. Time now 2018-Jul-21 17:33 UTC.
Position N 33°53' W 008°10'.

Length 300 m; draft 10.7 m.

Type: Cargo ship. MMSI: 477196800.

Date/timePositionNaut miles runAvg speedWind from/ knotsBaromVisibWave heightAir tempDewpointWater temp
2018-Jul-21 17:30N 33°53' W 008°10'1018.9
2018-Jul-21 17:00N 33°46' W 008°18'1218.3
2018-Jul-21 16:22N 33°37' W 008°27'23816.7
2018-Jul-21 02:08N 30°28' W 011°17'2315.2
2018-Jul-21 00:37N 30°09' W 011°32'215.5
2018-Jul-21 00:30N 30°08' W 011°33'815.5
2018-Jul-20 23:58N 30°01' W 011°39'815.7
2018-Jul-20 23:30N 29°55' W 011°44'815.7
2018-Jul-20 23:00N 29°48' W 011°49'815.5
2018-Jul-20 22:30N 29°42' W 011°54'815.7
2018-Jul-20 22:00N 29°36' W 011°59'815.6
2018-Jul-20 21:30N 29°29' W 012°04'815.7
2018-Jul-20 21:01N 29°23' W 012°09'815.9
2018-Jul-20 20:30N 29°16' W 012°14'815.9
2018-Jul-20 20:01N 29°10' W 012°20'815.8
2018-Jul-20 19:30N 29°03' W 012°25'815.7
2018-Jul-20 19:00N 28°57' W 012°30'815.6
2018-Jul-20 18:30N 28°51' W 012°35'815.7
2018-Jul-20 18:00N 28°44' W 012°40'815.9
2018-Jul-20 17:30N 28°38' W 012°45'815.9
2018-Jul-20 17:01N 28°31' W 012°50'816.2
2018-Jul-20 16:30N 28°25' W 012°56'816.4
2018-Jul-20 16:00N 28°18' W 013°01'816.4
2018-Jul-20 15:30N 28°11' W 013°06'816.2
2018-Jul-20 15:00N 28°04' W 013°12'816.1
2018-Jul-20 14:30N 27°58' W 013°17'816.0
2018-Jul-20 14:00N 27°51' W 013°23'816.0
2018-Jul-20 13:30N 27°45' W 013°28'816.0
2018-Jul-20 13:00N 27°39' W 013°34'816.2
2018-Jul-20 12:30N 27°33' W 013°40'816.6
2018-Jul-20 12:00N 27°26' W 013°45'816.8
2018-Jul-20 11:30N 27°20' W 013°51'816.8
2018-Jul-20 11:01N 27°13' W 013°57'816.9
2018-Jul-20 10:30N 27°06' W 014°03'816.9
2018-Jul-20 10:01N 26°60' W 014°09'816.6
2018-Jul-20 09:31N 26°53' W 014°15'816.8
2018-Jul-20 09:00N 26°47' W 014°21'816.7
2018-Jul-20 08:31N 26°40' W 014°26'816.5
2018-Jul-20 08:00N 26°34' W 014°32'816.5
2018-Jul-20 07:30N 26°27' W 014°38'816.7
2018-Jul-20 07:00N 26°21' W 014°43'916.6
2018-Jul-20 06:29N 26°14' W 014°49'816.8
2018-Jul-20 06:00N 26°07' W 014°55'916.9
2018-Jul-20 05:27N 26°00' W 015°01'916.7
2018-Jul-20 04:55N 25°53' W 015°07'716.4
2018-Jul-20 04:30N 25°48' W 015°12'7516.7
2018-Jul-20 00:00N 24°44' W 015°57'4417.2
2018-Jul-19 21:26N 24°07' W 016°22'1216.8
2018-Jul-19 20:43N 23°57' W 016°29'1316.8
2018-Jul-19 19:58N 23°46' W 016°37'  

Dump ship's entire track history